Date,TemperatureHighF,TemperatureAvgF,TemperatureLowF,DewpointHighF,DewpointAvgF,DewpointLowF,HumidityHigh,HumidityAvg,HumidityLow,PressureMaxIn,PressureMinIn,WindSpeedMaxMPH,WindSpeedAvgMPH,GustSpeedMaxMPH,PrecipitationSumIn
2013-2-1,50,32,12,-100,-100,-100,0,0,100,0.00,40.00,0,-999,0,0.00
2013-2-2,51,38,26,-100,-100,-100,0,0,100,0.00,40.00,0,-999,0,0.00
2013-2-3,53,36,22,-100,-100,-100,0,0,100,0.00,40.00,0,-999,0,0.00
2013-2-4,54,39,24,-100,-100,-100,0,0,100,0.00,40.00,0,-999,0,0.00
2013-2-5,55,37,24,-100,-100,-100,0,0,100,0.00,40.00,0,-999,0,0.00
2013-2-6,60,46,36,-100,-100,-100,0,0,100,0.00,40.00,0,-999,0,0.00
2013-2-7,52,39,27,-100,-100,-100,0,0,100,0.00,40.00,0,-999,0,0.00
2013-2-8,51,33,19,-100,-100,-100,0,0,100,0.00,40.00,0,-999,0,0.00
2013-2-9,48,36,21,-100,-100,-100,0,0,100,0.00,40.00,0,-999,0,0.00
2013-2-10,36,30,25,-100,-100,-100,0,0,100,0.00,40.00,0,-999,0,0.00
2013-2-11,32,25,17,-100,-100,-100,0,0,100,0.00,40.00,0,-999,0,0.00
2013-2-12,39,26,17,-100,-100,-100,0,0,100,0.00,40.00,0,-999,0,0.00
2013-2-13,48,35,23,-100,-100,-100,0,0,100,0.00,40.00,0,-999,0,0.00
2013-2-14,37,31,25,-100,-100,-100,0,0,100,0.00,40.00,0,-999,0,0.00
2013-2-15,32,22,14,-100,-100,-100,0,0,100,0.00,40.00,0,-999,0,0.00
2013-2-16,53,35,14,-100,-100,-100,0,0,100,0.00,40.00,0,-999,0,0.00
2013-2-17,64,41,23,-100,-100,-100,0,0,100,0.00,40.00,0,-999,0,0.00
2013-2-18,40,34,26,-100,-100,-100,0,0,100,0.00,40.00,0,-999,0,0.00
2013-2-19,35,23,14,-100,-100,-100,0,0,100,0.00,40.00,0,-999,0,0.00
2013-2-20,21,16,10,-100,-100,-100,0,0,100,0.00,40.00,0,-999,0,0.00
2013-2-21,18,17,15,-100,-100,-100,0,0,100,0.00,40.00,0,-999,0,0.00
2013-2-22,23,14,7,-100,-100,-100,0,0,100,0.00,40.00,0,-999,0,0.00
2013-2-23,34,19,3,-100,-100,-100,0,0,100,0.00,40.00,0,-999,0,0.00
2013-2-24,32,25,16,-100,-100,-100,0,0,100,0.00,40.00,0,-999,0,0.00
2013-2-25,35,30,17,-100,-100,-100,0,0,100,0.00,40.00,0,-999,0,0.00
2013-2-26,36,20,9,-100,-100,-100,0,0,100,0.00,40.00,0,-999,0,0.00
2013-2-27,31,28,22,-100,-100,-100,0,0,100,0.00,40.00,0,-999,0,0.00
2013-2-28,38,27,19,-100,-100,-100,0,0,100,0.00,40.00,0,-999,0,0.00